Time;durP1;ratioP1;P1;durP2;ratioP2;P2;SDS_P1;SDS_P2;PMS_P1;PMS_P2;Temp;Humidity;BMP_temperature;BMP_pressure;BME280_temperature;BME280_humidity;BME280_pressure;Samples;Min_cycle;Max_cycle;Signal;HPM_P1;HPM_P2
2022/07/24 00:02:18;;;;;;;7.42;6.12;;;;;;;16.58;77.01;100868.34;1751549;81;20970;-76
2022/07/24 00:04:45;;;;;;;7.92;6.17;;;;;;;16.73;77.07;100872.78;1740646;81;21544;-75
2022/07/24 00:07:12;;;;;;;7.87;5.85;;;;;;;16.85;76.56;100869.98;1782719;79;21093;-80
2022/07/24 00:09:39;;;;;;;7.05;6.10;;;;;;;16.92;76.01;100868.68;1769122;80;21023;-75
2022/07/24 00:12:06;;;;;;;6.47;5.78;;;;;;;17.02;75.85;100873.48;1744385;81;21113;-75
2022/07/24 00:14:33;;;;;;;8.23;5.97;;;;;;;17.11;75.48;100879.57;1773208;80;20998;-89
2022/07/24 00:17:00;;;;;;;7.65;5.78;;;;;;;17.15;75.26;100872.70;1732564;81;21122;-80
2022/07/24 00:19:28;;;;;;;9.53;6.10;;;;;;;17.21;74.85;100875.47;1754939;81;21134;-75
2022/07/24 00:21:57;;;;;;;9.40;6.03;;;;;;;17.22;74.52;100873.67;1768628;80;21054;-75
2022/07/24 00:24:24;;;;;;;9.35;5.92;;;;;;;17.23;74.27;100878.86;1757729;81;21012;-75
2022/07/24 00:26:50;;;;;;;7.45;6.17;;;;;;;17.23;73.95;100875.36;1752661;80;21035;-75
2022/07/24 00:29:18;;;;;;;7.92;6.70;;;;;;;17.23;73.75;100878.02;1753704;81;21048;-75
2022/07/24 00:31:45;;;;;;;7.15;5.90;;;;;;;17.20;73.52;100879.52;1742771;81;22559;-75
2022/07/24 00:34:12;;;;;;;6.03;5.33;;;;;;;17.15;73.40;100881.97;1737300;81;20932;-75
2022/07/24 00:36:41;;;;;;;7.60;6.20;;;;;;;17.13;73.27;100885.17;1774167;80;21031;-75
2022/07/24 00:39:08;;;;;;;6.72;6.05;;;;;;;17.09;73.17;100884.09;1773522;79;21010;-75
2022/07/24 00:41:35;;;;;;;7.83;5.45;;;;;;;17.06;73.14;100889.09;1780667;79;21054;-75
2022/07/24 00:44:09;;;;;;;7.12;5.90;;;;;;;17.02;72.88;100890.70;1795511;79;21164;-75
2022/07/24 00:46:39;;;;;;;6.70;5.75;;;;;;;16.98;72.97;100894.44;1751695;81;21031;-75
2022/07/24 00:49:10;;;;;;;13.45;6.05;;;;;;;16.94;73.04;100892.44;1769145;79;28329;-88
2022/07/24 00:51:39;;;;;;;6.60;5.80;;;;;;;16.92;72.97;100896.48;1758548;80;20985;-75
2022/07/24 00:54:08;;;;;;;7.37;6.20;;;;;;;16.88;72.81;100894.11;1758932;81;21147;-75
2022/07/24 00:56:35;;;;;;;7.35;6.65;;;;;;;16.83;72.86;100899.65;1752413;81;21121;-75
2022/07/24 00:59:04;;;;;;;9.00;6.20;;;;;;;16.78;72.79;100898.20;1750357;81;21095;-75
2022/07/24 01:01:31;;;;;;;9.30;6.50;;;;;;;16.71;72.75;100893.21;1788245;80;21570;-75
2022/07/24 01:03:59;;;;;;;8.38;6.22;;;;;;;16.64;72.80;100898.91;1792253;80;21034;-75
2022/07/24 01:06:26;;;;;;;7.58;6.20;;;;;;;16.60;72.77;100894.27;1778674;78;20984;-75
2022/07/24 01:08:53;;;;;;;8.05;6.33;;;;;;;16.56;72.89;100896.68;1787261;79;21081;-75
2022/07/24 01:11:20;;;;;;;8.03;6.17;;;;;;;16.48;72.86;100895.77;1750488;81;20974;-81
2022/07/24 01:13:49;;;;;;;7.72;6.80;;;;;;;16.42;72.96;100893.45;1788435;80;21500;-76
2022/07/24 01:16:17;;;;;;;7.85;7.05;;;;;;;16.36;72.95;100899.55;1781173;80;21497;-75
2022/07/24 01:18:44;;;;;;;7.08;6.00;;;;;;;16.27;73.02;100895.61;1772095;78;20991;-75
2022/07/24 01:21:11;;;;;;;7.50;6.20;;;;;;;16.21;73.07;100895.47;1784290;80;21017;-75
2022/07/24 01:23:38;;;;;;;8.73;6.90;;;;;;;16.13;73.22;100894.13;1785488;80;21041;-75
2022/07/24 01:26:08;;;;;;;7.92;6.05;;;;;;;16.13;73.61;100895.01;1761950;80;21064;-75
2022/07/24 01:28:36;;;;;;;6.97;5.90;;;;;;;16.14;73.70;100898.50;1747609;81;21058;-90
2022/07/24 01:31:04;;;;;;;11.20;6.33;;;;;;;16.16;74.01;100898.81;1752144;81;21012;-76
2022/07/24 01:33:31;;;;;;;6.85;6.15;;;;;;;16.18;73.85;100899.56;1748973;80;21147;-86
2022/07/24 01:35:58;;;;;;;8.65;6.55;;;;;;;16.16;73.84;100903.25;1735759;81;21000;-88
2022/07/24 01:38:25;;;;;;;10.70;7.42;;;;;;;16.14;73.69;100894.53;1754895;81;21024;-76
2022/07/24 01:40:52;;;;;;;8.93;6.53;;;;;;;16.09;73.57;100898.73;1753814;81;21067;-88
2022/07/24 01:43:19;;;;;;;7.37;6.58;;;;;;;16.01;73.66;100898.27;1760475;81;21044;-77
2022/07/24 01:45:46;;;;;;;8.83;6.62;;;;;;;15.97;73.79;100899.38;1734356;81;21121;-90
2022/07/24 01:48:13;;;;;;;7.70;6.55;;;;;;;15.93;73.75;100907.06;1762458;81;21032;-83
2022/07/24 01:50:39;;;;;;;9.28;6.60;;;;;;;15.86;73.75;100906.53;1750582;81;20990;-75
2022/07/24 01:53:07;;;;;;;8.03;6.40;;;;;;;15.82;73.84;100903.64;1737501;81;21040;-76
2022/07/24 01:55:34;;;;;;;7.60;6.90;;;;;;;15.74;73.82;100909.34;1729670;81;21056;-75
2022/07/24 01:58:01;;;;;;;10.48;6.72;;;;;;;15.69;74.12;100905.22;1763513;80;21118;-76
2022/07/24 02:00:29;;;;;;;8.80;7.33;;;;;;;15.66;74.54;100907.52;1785021;80;22420;-91
2022/07/24 02:02:56;;;;;;;7.42;6.60;;;;;;;15.54;74.15;100901.50;1787387;80;21030;-92
2022/07/24 02:05:23;;;;;;;13.05;7.20;;;;;;;15.54;74.15;100901.50;1778936;80;21031;-80
2022/07/24 02:07:57;;;;;;;9.40;6.83;;;;;;;15.53;74.39;100906.41;1774175;80;21081;-92
2022/07/24 02:10:25;;;;;;;8.25;7.08;;;;;;;15.48;74.40;100905.78;1784215;80;21941;-79
2022/07/24 02:12:53;;;;;;;9.58;7.05;;;;;;;15.42;74.71;100902.97;1780099;80;21035;-79
2022/07/24 02:15:20;;;;;;;7.33;6.62;;;;;;;15.39;74.72;100897.38;1764343;80;21000;-76
2022/07/24 02:17:49;;;;;;;9.43;6.90;;;;;;;15.36;74.70;100905.92;1740738;81;21020;-76
2022/07/24 02:20:16;;;;;;;8.75;6.80;;;;;;;15.30;74.75;100906.23;1751729;81;21080;-75
2022/07/24 02:22:44;;;;;;;8.55;6.90;;;;;;;15.24;74.72;100905.18;1731725;81;21114;-83
2022/07/24 02:25:12;;;;;;;9.55;6.90;;;;;;;15.16;74.82;100908.21;1751355;81;21461;-75
2022/07/24 02:27:39;;;;;;;11.75;6.78;;;;;;;15.10;74.92;100909.80;1737755;81;21047;-83
2022/07/24 02:30:11;;;;;;;9.90;7.12;;;;;;;15.03;74.96;100916.32;1751762;81;21009;-83
2022/07/24 02:32:38;;;;;;;9.53;7.40;;;;;;;14.97;75.08;100913.50;1748515;81;21156;-75
2022/07/24 02:35:07;;;;;;;10.48;7.83;;;;;;;14.95;75.41;100915.36;1755813;80;21197;-76
2022/07/24 02:37:42;;;;;;;8.58;6.62;;;;;;;14.92;75.41;100915.03;1745912;81;20979;-89
2022/07/24 02:40:12;;;;;;;11.40;7.30;;;;;;;14.87;75.50;100913.53;1763999;81;20984;-89
2022/07/24 02:42:39;;;;;;;10.08;7.50;;;;;;;14.81;75.58;100915.14;1757256;81;21098;-80
2022/07/24 02:45:07;;;;;;;8.83;7.72;;;;;;;14.75;75.57;100918.93;1752810;81;21281;-75
2022/07/24 02:47:36;;;;;;;9.85;6.92;;;;;;;14.67;75.81;100920.59;1762610;81;21244;-76
2022/07/24 02:50:04;;;;;;;7.72;6.92;;;;;;;14.65;75.92;100925.55;1757763;81;21042;-92
2022/07/24 02:52:31;;;;;;;9.63;7.35;;;;;;;14.62;76.06;100932.28;1751052;81;22436;-92
2022/07/24 02:54:58;;;;;;;9.00;7.42;;;;;;;14.59;76.11;100928.00;1752054;81;21086;-86
2022/07/24 02:57:25;;;;;;;8.43;7.20;;;;;;;14.55;76.23;100932.16;1783346;80;21160;-77
2022/07/24 02:59:52;;;;;;;9.73;7.83;;;;;;;14.52;76.26;100937.09;1791815;80;22084;-90
2022/07/24 03:02:19;;;;;;;10.40;7.53;;;;;;;14.47;76.23;100935.97;1761805;81;21068;-76
2022/07/24 03:04:47;;;;;;;10.93;7.42;;;;;;;14.39;76.16;100932.82;1743001;81;21679;-75
2022/07/24 03:07:14;;;;;;;8.60;7.28;;;;;;;14.32;76.40;100938.42;1739636;81;21004;-89
2022/07/24 03:09:42;;;;;;;9.03;8.13;;;;;;;14.25;76.54;100939.17;1747737;81;21064;-76
2022/07/24 03:12:09;;;;;;;10.55;7.70;;;;;;;14.20;76.68;100947.73;1751319;80;21110;-77
2022/07/24 03:14:37;;;;;;;8.88;7.80;;;;;;;14.17;76.88;100958.42;1752791;81;20993;-87
2022/07/24 03:17:04;;;;;;;9.60;7.37;;;;;;;14.16;77.11;100958.00;1757176;80;21072;-78
2022/07/24 03:19:31;;;;;;;9.60;7.65;;;;;;;14.15;77.19;100961.58;1759698;81;20987;-90
2022/07/24 03:21:58;;;;;;;10.38;7.97;;;;;;;14.14;77.32;100971.73;1741986;81;21082;-89
2022/07/24 03:24:25;;;;;;;11.20;8.70;;;;;;;14.12;77.47;100972.25;1759260;80;21273;-84
2022/07/24 03:26:52;;;;;;;11.57;8.43;;;;;;;14.10;77.53;100965.72;1735495;81;21586;-84
2022/07/24 03:29:19;;;;;;;9.68;8.30;;;;;;;14.08;77.54;100968.02;1759362;80;21477;-76
2022/07/24 03:31:46;;;;;;;15.78;8.50;;;;;;;14.05;77.63;100968.56;1777193;80;21021;-87
2022/07/24 03:34:13;;;;;;;9.25;8.28;;;;;;;14.04;77.72;100972.11;1778891;80;21049;-84
2022/07/24 03:36:40;;;;;;;9.55;8.35;;;;;;;14.04;77.87;100974.73;1777464;80;21824;-79
2022/07/24 03:39:08;;;;;;;9.88;8.33;;;;;;;14.03;77.92;100969.55;1775531;80;21463;-88
2022/07/24 03:41:35;;;;;;;10.40;8.43;;;;;;;14.02;78.18;100968.70;1744588;80;21536;-77
2022/07/24 03:44:02;;;;;;;9.20;7.87;;;;;;;14.08;78.55;100971.53;1767489;80;21514;-89
2022/07/24 03:46:29;;;;;;;11.48;9.18;;;;;;;14.16;78.69;100971.19;1782101;80;21275;-76
2022/07/24 03:48:56;;;;;;;12.45;8.58;;;;;;;14.22;78.86;100973.58;1786491;80;21088;-75
2022/07/24 03:51:24;;;;;;;11.12;8.25;;;;;;;14.27;78.75;100969.82;1791114;78;21059;-77
2022/07/24 03:53:51;;;;;;;13.50;8.10;;;;;;;14.32;78.88;100968.28;1754082;80;21563;-85
2022/07/24 03:56:18;;;;;;;9.50;8.10;;;;;;;14.37;78.76;100972.05;1749450;81;21073;-78
2022/07/24 03:58:45;;;;;;;11.60;8.15;;;;;;;14.40;78.80;100971.44;1781044;78;21093;-85
2022/07/24 04:01:12;;;;;;;11.33;8.00;;;;;;;14.43;78.73;100971.30;1772966;80;21091;-90
2022/07/24 04:03:39;;;;;;;9.25;7.92;;;;;;;14.47;78.88;100972.05;1779273;80;21053;-83
2022/07/24 04:06:06;;;;;;;10.82;7.55;;;;;;;14.52;78.90;100976.67;1743741;80;21146;-78
2022/07/24 04:08:34;;;;;;;12.50;7.70;;;;;;;14.57;79.00;100973.37;1757254;81;20999;-79
2022/07/24 04:11:01;;;;;;;11.40;7.87;;;;;;;14.62;78.88;100970.06;1743948;80;21287;-88
2022/07/24 04:13:30;;;;;;;9.60;7.30;;;;;;;14.67;78.87;100973.83;1740436;80;21109;-85
2022/07/24 04:15:58;;;;;;;11.12;7.30;;;;;;;14.70;78.98;100973.22;1770931;80;21007;-76
2022/07/24 04:18:26;;;;;;;8.03;7.03;;;;;;;14.73;78.83;100984.95;1758309;81;21070;-87
2022/07/24 04:20:53;;;;;;;12.10;7.62;;;;;;;14.77;78.89;100984.38;1748794;80;21606;-81
2022/07/24 04:23:20;;;;;;;11.55;7.50;;;;;;;14.81;78.91;100989.89;1736082;81;21106;-86
2022/07/24 04:25:47;;;;;;;8.63;6.95;;;;;;;14.88;79.06;100994.41;1759369;81;21083;-77
2022/07/24 04:28:14;;;;;;;8.68;7.10;;;;;;;14.92;78.83;100994.69;1759426;80;21031;-76
2022/07/24 04:30:41;;;;;;;9.30;7.37;;;;;;;14.97;79.09;100992.70;1748810;78;21094;-76
2022/07/24 04:33:08;;;;;;;8.38;7.33;;;;;;;15.06;79.11;100996.22;1768161;81;21050;-76
2022/07/24 04:35:35;;;;;;;9.33;7.28;;;;;;;15.10;78.83;100994.29;1769133;81;21015;-80
2022/07/24 04:38:02;;;;;;;10.32;7.78;;;;;;;15.10;78.60;100997.81;1768215;81;21118;-76
2022/07/24 04:40:29;;;;;;;9.50;7.40;;;;;;;15.11;78.58;101002.63;1768057;81;21045;-77
2022/07/24 04:42:56;;;;;;;12.30;7.58;;;;;;;15.13;78.70;101005.59;1765645;78;21296;-90
2022/07/24 04:45:23;;;;;;;9.20;7.10;;;;;;;15.16;78.59;101007.23;1755947;81;21077;-76
2022/07/24 04:47:50;;;;;;;10.08;7.55;;;;;;;15.18;78.56;101009.31;1768205;78;21146;-76
2022/07/24 04:50:17;;;;;;;10.10;7.50;;;;;;;15.21;78.43;101012.28;1769862;78;21103;-76
2022/07/24 04:52:45;;;;;;;8.63;6.92;;;;;;;15.23;78.46;101013.07;1768372;78;21049;-76
2022/07/24 04:55:12;;;;;;;8.10;6.80;;;;;;;15.25;78.38;101016.03;1767348;81;21116;-80
2022/07/24 04:57:40;;;;;;;9.23;7.12;;;;;;;15.30;78.46;101018.47;1744306;81;21027;-76
2022/07/24 05:00:10;;;;;;;8.03;6.03;;;;;;;15.33;78.39;101023.14;1761876;78;21054;-76
2022/07/24 05:02:37;;;;;;;9.55;6.58;;;;;;;15.42;78.14;101024.48;1765534;78;21324;-90
2022/07/24 05:05:05;;;;;;;8.00;6.58;;;;;;;15.42;78.14;101024.48;1766476;78;21048;-90
2022/07/24 05:07:32;;;;;;;11.43;6.42;;;;;;;15.48;78.23;101024.66;1764975;81;21527;-82
2022/07/24 05:09:59;;;;;;;7.92;6.65;;;;;;;15.50;78.03;101018.84;1765024;78;21055;-88
2022/07/24 05:12:27;;;;;;;9.68;6.78;;;;;;;15.56;77.99;101019.87;1764449;79;21055;-88
2022/07/24 05:14:53;;;;;;;7.95;6.10;;;;;;;15.58;77.79;101018.02;1766260;78;21078;-85
2022/07/24 05:17:20;;;;;;;6.42;5.60;;;;;;;15.62;77.74;101026.17;1764040;78;21047;-85
2022/07/24 05:19:48;;;;;;;9.25;5.55;;;;;;;15.66;77.85;101026.44;1766084;78;21270;-86
2022/07/24 05:22:14;;;;;;;7.60;5.22;;;;;;;15.72;77.63;101030.13;1762346;78;21031;-78
2022/07/24 05:24:41;;;;;;;6.72;5.12;;;;;;;15.79;77.62;101024.91;1763631;78;21414;-91
2022/07/24 05:27:09;;;;;;;5.47;4.62;;;;;;;15.84;77.33;101022.91;1763068;78;21121;-87
2022/07/24 05:29:37;;;;;;;5.42;3.98;;;;;;;15.89;77.19;101021.37;1762193;80;21012;-88
2022/07/24 05:32:13;;;;;;;5.30;4.03;;;;;;;15.95;76.87;101028.99;1763620;81;21066;-88
2022/07/24 05:34:40;;;;;;;6.22;4.42;;;;;;;16.03;76.29;101014.92;1763744;78;21483;-78
2022/07/24 05:37:09;;;;;;;5.58;4.10;;;;;;;16.03;76.29;101014.92;1762872;81;21090;-84
2022/07/24 05:39:36;;;;;;;5.70;4.37;;;;;;;16.13;76.59;101027.68;1763627;81;22318;-85
2022/07/24 05:42:04;;;;;;;5.45;4.30;;;;;;;16.19;76.62;101020.78;1764338;81;21054;-81
2022/07/24 05:44:31;;;;;;;5.45;4.78;;;;;;;16.28;76.52;101027.77;1765908;78;21548;-79
2022/07/24 05:46:58;;;;;;;3.95;3.50;;;;;;;16.33;76.11;101028.02;1765275;81;21508;-84
2022/07/24 05:49:25;;;;;;;6.60;5.30;;;;;;;16.37;75.78;101033.05;1765383;81;21074;-83
2022/07/24 05:51:52;;;;;;;5.70;4.42;;;;;;;16.42;75.66;101032.36;1770755;78;21219;-81
2022/07/24 05:54:19;;;;;;;5.53;3.60;;;;;;;16.49;75.75;101035.56;1780396;79;21101;-85
2022/07/24 05:56:55;;;;;;;5.05;3.83;;;;;;;16.56;75.40;101035.61;1762542;79;21074;-85
2022/07/24 05:59:22;;;;;;;5.05;3.80;;;;;;;16.60;75.18;101037.18;1755772;81;21274;-90
2022/07/24 06:01:51;;;;;;;5.22;4.03;;;;;;;16.63;74.94;101030.41;1757025;81;21135;-90
2022/07/24 06:04:18;;;;;;;4.75;3.50;;;;;;;16.69;74.71;101032.72;1733353;80;21123;-81
2022/07/24 06:06:45;;;;;;;5.97;3.22;;;;;;;16.73;74.48;101030.76;1758246;81;21020;-79
2022/07/24 06:09:12;;;;;;;4.10;3.12;;;;;;;16.78;74.26;101032.73;1746594;81;21581;-82
2022/07/24 06:11:39;;;;;;;4.72;2.95;;;;;;;16.83;74.14;101026.73;1732374;81;21927;-80
2022/07/24 06:14:06;;;;;;;4.17;2.98;;;;;;;16.88;73.97;101027.82;1758216;81;21051;-85
2022/07/24 06:16:33;;;;;;;5.55;3.00;;;;;;;16.94;73.73;101031.45;1767700;81;21047;-80
2022/07/24 06:19:01;;;;;;;3.95;2.92;;;;;;;16.98;73.50;101030.34;1763168;79;21405;-79
2022/07/24 06:21:27;;;;;;;3.37;3.08;;;;;;;17.03;73.33;101034.92;1757253;81;21305;-83
2022/07/24 06:23:54;;;;;;;6.05;2.87;;;;;;;17.09;73.13;101032.41;1747778;80;20963;-80
2022/07/24 06:26:21;;;;;;;4.90;2.87;;;;;;;17.16;73.07;101035.12;1756749;81;21130;-80
2022/07/24 06:28:50;;;;;;;4.87;2.87;;;;;;;17.23;72.82;101029.02;1754977;81;21213;-88
2022/07/24 06:31:19;;;;;;;5.45;3.20;;;;;;;17.30;72.89;101034.38;1759168;79;21103;-90
2022/07/24 06:33:46;;;;;;;5.53;2.70;;;;;;;17.39;72.64;101031.20;1778631;79;21448;-79
2022/07/24 06:36:12;;;;;;;4.12;2.85;;;;;;;17.47;72.56;101036.09;1759980;81;21035;-82
2022/07/24 06:38:39;;;;;;;4.28;2.60;;;;;;;17.56;72.42;101038.22;1755958;81;21524;-84
2022/07/24 06:41:06;;;;;;;4.67;3.20;;;;;;;17.63;72.12;101034.77;1757332;80;21639;-85
2022/07/24 06:43:33;;;;;;;3.47;2.72;;;;;;;17.69;71.64;101037.06;1782574;79;21026;-86
2022/07/24 06:46:00;;;;;;;4.22;2.70;;;;;;;17.73;71.57;101038.11;1741855;81;21047;-84
2022/07/24 06:48:27;;;;;;;4.80;3.02;;;;;;;17.79;71.35;101039.59;1742336;81;21039;-90
2022/07/24 06:50:54;;;;;;;3.35;2.40;;;;;;;17.84;71.13;101043.69;1741848;81;21070;-89
2022/07/24 06:53:21;;;;;;;4.95;2.80;;;;;;;17.89;70.91;101038.13;1745808;80;21108;-89
2022/07/24 06:55:52;;;;;;;5.15;2.75;;;;;;;17.95;70.62;101039.58;1743522;81;20940;-89
2022/07/24 06:58:17;;;;;;;4.53;2.33;;;;;;;17.99;70.36;101033.17;1733036;81;21056;-91
2022/07/24 07:00:44;;;;;;;4.58;2.55;;;;;;;18.05;70.07;101044.73;1732370;81;21052;-91
2022/07/24 07:03:11;;;;;;;3.25;2.15;;;;;;;18.11;69.90;101036.42;1730787;81;21111;-91
2022/07/24 07:05:38;;;;;;;2.90;1.87;;;;;;;18.13;69.76;101041.17;1729880;81;21119;-88
2022/07/24 07:08:05;;;;;;;2.15;1.30;;;;;;;18.21;69.54;101038.92;1737636;81;21096;-87
2022/07/24 07:10:32;;;;;;;2.83;1.50;;;;;;;18.30;69.22;101040.66;1733602;81;21035;-85
2022/07/24 07:12:59;;;;;;;2.95;1.15;;;;;;;18.39;68.95;101039.63;1744202;81;20980;-83
2022/07/24 07:15:26;;;;;;;3.75;1.27;;;;;;;18.48;68.40;101038.21;1746752;81;21379;-84
2022/07/24 07:17:53;;;;;;;1.98;1.12;;;;;;;18.58;67.94;101039.86;1742293;81;21129;-82
2022/07/24 07:20:20;;;;;;;2.05;1.12;;;;;;;18.64;67.46;101032.84;1745008;81;21052;-81
2022/07/24 07:22:48;;;;;;;2.40;0.90;;;;;;;18.72;67.26;101037.21;1752395;81;20930;-82
2022/07/24 07:25:14;;;;;;;3.20;1.10;;;;;;;18.80;66.83;101038.11;1754987;81;21097;-81
2022/07/24 07:27:42;;;;;;;1.82;0.70;;;;;;;18.87;66.22;101043.41;1759126;79;46658;-82
2022/07/24 07:30:11;;;;;;;2.50;0.70;;;;;;;18.93;65.85;101043.06;1763227;81;22344;-85
2022/07/24 07:32:39;;;;;;;0.60;0.57;;;;;;;19.02;65.51;101037.16;1756473;81;21515;-83
2022/07/24 07:35:08;;;;;;;2.10;0.95;;;;;;;19.12;64.86;101047.61;1756303;81;21042;-81
2022/07/24 07:37:35;;;;;;;2.65;0.80;;;;;;;19.18;64.44;101043.71;1756467;81;21031;-81
2022/07/24 07:40:02;;;;;;;2.02;0.78;;;;;;;19.25;64.11;101042.36;1755907;81;21039;-81
2022/07/24 07:42:30;;;;;;;1.20;0.85;;;;;;;19.33;63.84;101036.08;1721239;81;21952;-81
2022/07/24 07:44:57;;;;;;;4.30;1.27;;;;;;;19.41;63.52;101042.24;1760857;81;21007;-81
2022/07/24 07:47:24;;;;;;;4.92;1.00;;;;;;;19.51;63.39;101039.38;1717847;81;21528;-81
2022/07/24 07:49:51;;;;;;;1.12;0.68;;;;;;;19.57;62.73;101036.80;1757077;81;21062;-81
2022/07/24 07:52:20;;;;;;;2.55;0.90;;;;;;;19.64;62.69;101044.74;1754329;81;21055;-81
2022/07/24 07:54:49;;;;;;;1.73;0.80;;;;;;;19.71;62.22;101033.28;1749906;81;21098;-81
2022/07/24 07:57:17;;;;;;;6.83;1.05;;;;;;;19.79;61.81;101034.97;1749963;81;21587;-81
2022/07/24 07:59:44;;;;;;;1.47;0.70;;;;;;;19.86;61.56;101024.28;1758114;81;21032;-81
2022/07/24 08:02:11;;;;;;;1.82;1.00;;;;;;;19.96;61.28;101027.20;1759763;81;21055;-80
2022/07/24 08:04:38;;;;;;;1.42;0.70;;;;;;;20.07;60.76;101026.00;1751592;81;21012;-80
2022/07/24 08:07:05;;;;;;;2.08;0.70;;;;;;;20.20;60.52;101041.98;1752504;81;21111;-81
2022/07/24 08:09:32;;;;;;;1.00;0.62;;;;;;;20.24;60.34;101028.38;1764871;81;21033;-80
2022/07/24 08:11:59;;;;;;;3.70;1.00;;;;;;;20.36;59.99;101027.17;1752678;80;21001;-81
2022/07/24 08:14:26;;;;;;;3.05;0.90;;;;;;;20.42;59.84;101029.41;1764848;81;21456;-80
2022/07/24 08:16:53;;;;;;;1.30;0.60;;;;;;;20.51;59.58;101035.45;1764572;81;21549;-81
2022/07/24 08:19:21;;;;;;;1.40;0.68;;;;;;;20.60;59.25;101032.18;1743071;81;21697;-82
2022/07/24 08:21:48;;;;;;;2.92;0.80;;;;;;;20.64;58.72;101031.48;1754188;81;21047;-81
2022/07/24 08:24:20;;;;;;;2.85;0.78;;;;;;;20.66;58.13;101036.23;1752771;81;21457;-81
2022/07/24 08:26:48;;;;;;;3.37;0.88;;;;;;;20.65;57.38;101034.05;1755405;80;21040;-81
2022/07/24 08:29:16;;;;;;;4.15;3.40;;;;;;;20.62;57.19;101029.42;1771293;80;21111;-82
2022/07/24 08:31:43;;;;;;;2.62;0.95;;;;;;;20.64;57.09;101033.66;1773583;79;21184;-81
2022/07/24 08:34:10;;;;;;;1.90;0.70;;;;;;;20.73;57.25;101045.52;1773678;80;20991;-81
2022/07/24 08:36:38;;;;;;;1.95;0.80;;;;;;;20.84;56.89;101033.63;1773581;80;21054;-81
2022/07/24 08:39:06;;;;;;;1.52;0.93;;;;;;;20.92;56.50;101035.73;1773844;80;22170;-81
2022/07/24 08:41:35;;;;;;;3.45;0.72;;;;;;;21.00;56.23;101025.87;1773665;80;21207;-81
2022/07/24 08:44:04;;;;;;;1.45;0.88;;;;;;;21.07;56.21;101033.33;1752610;80;21160;-81
2022/07/24 08:46:32;;;;;;;1.50;0.80;;;;;;;21.20;55.95;101026.66;1773711;80;21481;-80
2022/07/24 08:48:59;;;;;;;1.85;1.00;;;;;;;21.29;55.80;101026.47;1773920;80;21019;-81
2022/07/24 08:51:35;;;;;;;2.92;1.40;;;;;;;21.42;55.46;101023.30;1766225;79;21495;-81
2022/07/24 08:54:03;;;;;;;1.95;0.72;;;;;;;21.50;55.11;101020.92;1754404;80;21584;-86
2022/07/24 08:56:30;;;;;;;1.62;0.80;;;;;;;21.61;54.90;101022.80;1756209;80;22341;-81
2022/07/24 08:58:57;;;;;;;1.05;0.60;;;;;;;21.68;54.16;101027.22;1754403;81;20991;-81
2022/07/24 09:01:24;;;;;;;0.88;0.70;;;;;;;21.68;53.46;101021.41;1764891;80;21660;-82
2022/07/24 09:03:51;;;;;;;2.15;0.70;;;;;;;21.67;52.97;101029.05;1764760;81;21449;-83
2022/07/24 09:06:18;;;;;;;0.60;0.55;;;;;;;21.70;53.09;101022.60;1787513;80;21494;-81
2022/07/24 09:09:03;;;;;;;2.02;0.88;;;;;;;21.77;52.79;101019.86;1787375;80;21118;-82
2022/07/24 09:11:37;;;;;;;3.90;0.93;;;;;;;21.88;52.77;101021.25;1787493;80;21082;-81
2022/07/24 09:16:52;;;;;;;2.17;0.90;;;;;;;22.10;52.49;101028.98;1787581;80;21489;-81
2022/07/24 09:19:21;;;;;;;1.92;0.98;;;;;;;22.29;52.15;101032.48;1787744;80;21044;-81
2022/07/24 09:21:49;;;;;;;4.43;1.23;;;;;;;22.34;51.56;101035.17;1785881;80;21893;-83
2022/07/24 09:24:22;;;;;;;2.83;0.90;;;;;;;22.34;51.42;101034.32;1774471;80;21893;-88
2022/07/24 09:26:56;;;;;;;1.35;0.80;;;;;;;22.44;51.55;101040.15;1755241;81;21062;-83
2022/07/24 09:29:26;;;;;;;2.52;1.10;;;;;;;22.55;51.07;101033.98;1742367;81;21117;-85
2022/07/24 09:32:02;;;;;;;2.00;0.80;;;;;;;22.65;50.83;101023.45;1758440;81;21034;-90
2022/07/24 09:34:45;;;;;;;3.12;0.75;;;;;;;22.72;50.67;101025.98;1781927;80;21117;-83
2022/07/24 09:37:13;;;;;;;2.12;0.80;;;;;;;22.82;50.37;101032.33;1779478;80;21024;-82
2022/07/24 09:39:40;;;;;;;1.00;0.70;;;;;;;22.88;50.12;101028.31;1770515;80;21040;-81
2022/07/24 09:42:09;;;;;;;1.42;0.90;;;;;;;22.97;49.83;101022.75;1777667;80;20889;-87
2022/07/24 09:44:37;;;;;;;6.80;1.22;;;;;;;22.98;49.49;101019.98;1776567;80;21078;-84
2022/07/24 09:47:07;;;;;;;1.40;0.75;;;;;;;23.09;49.55;101025.81;1775411;80;21149;-85
2022/07/24 09:49:36;;;;;;;1.60;0.80;;;;;;;23.15;48.50;101019.97;1778138;80;21575;-86
2022/07/24 09:52:25;;;;;;;3.53;0.70;;;;;;;23.22;48.11;101031.85;1772196;80;21502;-93
2022/07/24 09:54:53;;;;;;;1.30;0.70;;;;;;;23.28;47.89;101019.34;1756094;79;21028;-87
2022/07/24 09:57:29;;;;;;;1.00;0.60;;;;;;;23.44;47.68;101019.42;1758508;79;21027;-93
2022/07/24 10:00:01;;;;;;;2.22;0.72;;;;;;;23.59;47.50;101024.38;1763756;81;21116;-85
2022/07/24 10:02:34;;;;;;;0.62;0.47;;;;;;;23.78;47.39;101024.25;1753808;79;20989;-86
2022/07/24 10:05:03;;;;;;;4.45;0.98;;;;;;;23.99;47.13;101011.73;1759161;81;21493;-85
2022/07/24 10:07:31;;;;;;;3.05;0.70;;;;;;;24.22;46.68;101013.82;1763792;80;21625;-84
2022/07/24 10:10:00;;;;;;;1.47;0.80;;;;;;;24.39;46.16;101012.87;1751153;81;21044;-82
2022/07/24 10:12:30;;;;;;;2.72;0.70;;;;;;;24.49;45.93;101015.14;1749406;81;21935;-83
2022/07/24 10:15:00;;;;;;;1.02;0.60;;;;;;;24.60;45.52;101014.21;1741461;81;21042;-84
2022/07/24 10:17:42;;;;;;;;;;;;;;;24.68;45.15;101015.24;1759894;81;21557;-84
2022/07/24 10:20:12;;;;;;;1.42;0.60;;;;;;;24.72;44.25;101007.81;1755756;81;20177;-82
2022/07/24 10:23:01;;;;;;;0.60;0.50;;;;;;;24.83;44.60;101002.35;1742884;81;21546;-84
2022/07/24 10:25:32;;;;;;;2.05;0.65;;;;;;;24.97;44.29;100997.11;1756042;81;21081;-83
2022/07/24 10:28:02;;;;;;;1.60;0.60;;;;;;;25.28;44.16;100991.73;1756190;81;21070;-86
2022/07/24 10:30:30;;;;;;;2.77;0.60;;;;;;;25.57;43.99;100993.11;1754557;81;21083;-86
2022/07/24 10:32:58;;;;;;;1.95;0.72;;;;;;;25.90;43.63;100993.22;1754948;81;21014;-86
2022/07/24 10:35:29;;;;;;;4.33;0.80;;;;;;;26.14;43.11;100995.48;1751746;81;21594;-85
2022/07/24 10:38:16;;;;;;;4.33;0.68;;;;;;;26.40;42.55;100998.89;1757403;81;21160;-84
2022/07/24 10:40:49;;;;;;;2.08;0.82;;;;;;;26.62;42.18;100993.19;1756785;81;21062;-82
2022/07/24 10:43:19;;;;;;;1.12;0.65;;;;;;;26.95;41.92;100998.17;1757287;81;21570;-83
2022/07/24 10:45:57;;;;;;;0.68;0.50;;;;;;;27.25;41.59;100995.72;1756857;81;21038;-83
2022/07/24 10:48:27;;;;;;;4.42;0.70;;;;;;;27.56;40.98;100990.31;1757136;81;21022;-85
2022/07/24 10:51:03;;;;;;;0.98;0.60;;;;;;;27.92;40.46;100995.73;1764179;81;21114;-83
2022/07/24 10:53:41;;;;;;;1.07;0.40;;;;;;;28.22;40.04;100989.07;1760860;79;20999;-85
2022/07/24 10:56:27;;;;;;;2.00;0.50;;;;;;;28.51;39.43;100989.28;1758149;80;21006;-88
2022/07/24 10:59:13;;;;;;;0.90;0.55;;;;;;;28.72;38.66;100995.66;1771154;80;21053;-85
2022/07/24 11:01:50;;;;;;;0.62;0.50;;;;;;;28.79;37.81;100991.80;1750880;81;21101;-85
2022/07/24 11:04:25;;;;;;;0.70;0.40;;;;;;;28.82;37.46;100987.42;1770423;80;21124;-86
2022/07/24 11:07:15;;;;;;;1.80;0.50;;;;;;;28.97;37.26;100983.12;1745261;81;21482;-85
2022/07/24 11:10:08;;;;;;;1.22;0.53;;;;;;;29.14;37.23;100982.70;1760889;80;20998;-89
2022/07/24 11:12:35;;;;;;;1.57;0.60;;;;;;;29.34;36.89;100991.36;1742203;81;20932;-87
2022/07/24 11:17:52;;;;;;;1.77;0.60;;;;;;;29.42;36.00;100976.53;1754163;80;21937;-81
2022/07/24 11:20:22;;;;;;;2.08;0.60;;;;;;;29.56;35.91;100980.44;1760465;79;21008;-80
2022/07/24 11:22:53;;;;;;;1.00;0.60;;;;;;;29.77;35.74;100968.67;1754865;80;21579;-82
2022/07/24 11:25:27;;;;;;;0.93;0.50;;;;;;;29.95;35.50;100969.00;1760666;81;21059;-82
2022/07/24 11:28:07;;;;;;;2.15;0.62;;;;;;;30.12;34.92;100966.62;1755082;81;21303;-81
2022/07/24 11:30:42;;;;;;;0.93;0.57;;;;;;;30.33;34.56;100972.88;1756886;81;21116;-87
2022/07/24 11:33:12;;;;;;;3.05;0.50;;;;;;;30.55;34.29;100976.72;1750502;80;21011;-83
2022/07/24 11:35:39;;;;;;;1.72;0.57;;;;;;;30.70;34.04;100981.41;1768283;81;21019;-82
2022/07/24 11:38:07;;;;;;;1.55;0.70;;;;;;;30.88;33.61;100973.94;1748271;81;21051;-87